createdAt,value
2022-09-12T00:01:19.776Z,16.65
2022-09-12T00:03:47.176Z,12.55
2022-09-12T00:06:22.812Z,13.02
2022-09-12T00:08:51.151Z,13.65
2022-09-12T00:11:18.036Z,14.15
2022-09-12T00:13:44.841Z,15.40
2022-09-12T00:16:20.551Z,15.90
2022-09-12T00:18:47.675Z,14.93
2022-09-12T00:21:15.818Z,14.73
2022-09-12T00:23:42.808Z,15.57
2022-09-12T00:26:10.111Z,16.83
2022-09-12T00:28:39.468Z,15.43
2022-09-12T00:31:09.187Z,17.48
2022-09-12T00:33:36.376Z,18.48
2022-09-12T00:36:12.731Z,19.20
2022-09-12T00:38:41.851Z,17.75
2022-09-12T00:41:15.832Z,18.60
2022-09-12T00:43:58.498Z,18.30
2022-09-12T00:46:46.791Z,20.10
2022-09-12T00:49:21.815Z,21.38
2022-09-12T00:52:00.392Z,20.13
2022-09-12T00:54:30.996Z,21.90
2022-09-12T00:57:01.781Z,22.80
2022-09-12T00:59:43.178Z,25.13
2022-09-12T01:02:10.197Z,22.90
2022-09-12T01:04:40.949Z,25.67
2022-09-12T01:07:08.542Z,24.65
2022-09-12T01:09:37.795Z,26.05
2022-09-12T01:12:05.231Z,22.60
2022-09-12T01:14:32.816Z,24.00
2022-09-12T01:16:59.546Z,25.48
2022-09-12T01:19:35.288Z,22.42
2022-09-12T01:22:04.665Z,24.23
2022-09-12T01:24:42.489Z,25.88
2022-09-12T01:27:41.086Z,25.35
2022-09-12T01:30:38.420Z,24.83
2022-09-12T01:33:49.514Z,25.10
2022-09-12T01:36:38.162Z,24.35
2022-09-12T01:39:13.641Z,22.40
2022-09-12T01:42:10.132Z,26.38
2022-09-12T01:45:07.621Z,24.83
2022-09-12T01:47:44.880Z,22.80
2022-09-12T01:50:20.000Z,24.88
2022-09-12T01:52:53.720Z,23.75
2022-09-12T01:55:42.025Z,23.23
2022-09-12T01:58:17.735Z,27.05
2022-09-12T02:01:02.721Z,24.85
2022-09-12T02:03:44.627Z,25.73
2022-09-12T02:06:30.970Z,24.05
2022-09-12T02:09:19.515Z,25.58
2022-09-12T02:11:47.517Z,23.85
2022-09-12T02:14:21.463Z,23.88
2022-09-12T02:16:59.743Z,26.73
2022-09-12T02:19:37.383Z,23.77
2022-09-12T02:22:06.260Z,26.83
2022-09-12T02:24:39.312Z,26.65
2022-09-12T02:27:28.379Z,24.90
2022-09-12T02:29:55.096Z,23.52
2022-09-12T02:32:30.683Z,24.67
2022-09-12T02:35:13.617Z,23.05
2022-09-12T02:37:48.138Z,25.52
2022-09-12T02:40:15.430Z,24.88
2022-09-12T02:42:42.143Z,26.80
2022-09-12T02:45:09.521Z,27.83
2022-09-12T02:47:45.215Z,25.08
2022-09-12T02:50:12.619Z,25.45
2022-09-12T02:52:40.693Z,26.05
2022-09-12T02:55:08.395Z,25.60
2022-09-12T02:57:34.975Z,24.25
2022-09-12T03:02:32.624Z,26.17
2022-09-12T03:05:17.711Z,31.75
2022-09-12T03:08:14.996Z,27.73
2022-09-12T03:11:06.482Z,26.33
2022-09-12T03:14:01.720Z,25.33
2022-09-12T03:16:34.486Z,25.50
2022-09-12T03:19:12.015Z,26.65
2022-09-12T03:22:10.851Z,26.92
2022-09-12T03:24:48.110Z,29.50
2022-09-12T03:27:30.015Z,27.55
2022-09-12T03:29:57.527Z,28.95
2022-09-12T03:32:44.994Z,28.80
2022-09-12T03:35:12.455Z,28.77
2022-09-12T03:37:39.194Z,28.60
2022-09-12T03:40:07.951Z,28.25
2022-09-12T03:42:34.605Z,28.77
2022-09-12T03:47:27.963Z,29.00
2022-09-12T03:49:54.561Z,28.75
2022-09-12T03:54:47.755Z,27.67
2022-09-12T03:59:41.161Z,27.70
2022-09-12T04:04:36.256Z,30.30
2022-09-12T04:09:29.419Z,26.90
2022-09-12T04:14:22.662Z,28.60
2022-09-12T04:16:49.266Z,28.05
2022-09-12T04:21:42.448Z,28.63
2022-09-12T04:26:35.641Z,28.33
2022-09-12T04:29:02.260Z,30.35
2022-09-12T04:31:28.870Z,30.33
2022-09-12T04:36:23.417Z,33.58
2022-09-12T04:38:50.346Z,33.25
2022-09-12T04:41:18.723Z,33.60
2022-09-12T04:43:46.418Z,30.55
2022-09-12T04:46:15.992Z,32.45
2022-09-12T04:48:43.726Z,32.30
2022-09-12T04:51:21.455Z,37.25
2022-09-12T04:53:50.186Z,32.97
2022-09-12T04:56:17.844Z,31.73
2022-09-12T04:58:44.672Z,30.33
2022-09-12T05:01:20.088Z,35.90
2022-09-12T05:03:48.226Z,35.35
2022-09-12T05:06:23.887Z,35.85
2022-09-12T05:08:52.682Z,35.92
2022-09-12T05:11:26.603Z,33.85
2022-09-12T05:13:57.545Z,35.15
2022-09-12T05:16:25.863Z,34.90
2022-09-12T05:18:52.971Z,34.22
2022-09-12T05:21:23.040Z,38.78
2022-09-12T05:23:53.803Z,35.78
2022-09-12T05:26:21.464Z,34.33
2022-09-12T05:28:49.483Z,34.67
2022-09-12T05:31:21.887Z,34.90
2022-09-12T05:33:49.967Z,35.65
2022-09-12T05:36:25.501Z,35.00
2022-09-12T05:38:52.516Z,38.80
2022-09-12T05:41:25.382Z,35.88
2022-09-12T05:46:21.224Z,37.25
2022-09-12T05:48:52.491Z,36.67
2022-09-12T05:51:27.217Z,38.17
2022-09-12T05:53:56.638Z,39.88
2022-09-12T05:56:25.660Z,36.55
2022-09-12T05:58:57.624Z,40.67
2022-09-12T06:01:25.772Z,42.90
2022-09-12T06:03:54.302Z,39.25
2022-09-12T06:06:23.007Z,41.85
2022-09-12T06:08:51.802Z,42.88
2022-09-12T06:11:21.470Z,38.55
2022-09-12T06:13:48.163Z,42.28
2022-09-12T06:16:17.868Z,43.63
2022-09-12T06:18:49.628Z,40.85
2022-09-12T06:21:16.327Z,44.47
2022-09-12T06:23:43.106Z,43.33
2022-09-12T06:26:11.071Z,47.67
2022-09-12T06:28:39.835Z,47.25
2022-09-12T06:31:12.515Z,50.42
2022-09-12T06:33:42.331Z,46.05
2022-09-12T06:36:18.254Z,47.33
2022-09-12T06:38:48.717Z,49.22
2022-09-12T06:41:15.879Z,44.70
2022-09-12T06:43:43.005Z,45.13
2022-09-12T06:46:10.614Z,51.45
2022-09-12T06:48:41.619Z,46.33
2022-09-12T06:51:17.666Z,45.58
2022-09-12T06:53:45.589Z,52.90
2022-09-12T06:56:14.560Z,50.10
2022-09-12T06:58:42.504Z,50.30
2022-09-12T07:01:11.812Z,45.92
2022-09-12T07:03:39.125Z,53.90
2022-09-12T07:06:11.131Z,47.92
2022-09-12T07:08:38.820Z,50.70
2022-09-12T07:11:09.378Z,55.65
2022-09-12T07:13:36.049Z,53.15
2022-09-12T07:16:04.181Z,54.70
2022-09-12T07:18:31.407Z,51.15
2022-09-12T07:21:01.855Z,53.22
2022-09-12T07:23:29.917Z,60.92
2022-09-12T07:25:58.181Z,54.08
2022-09-12T07:28:26.080Z,53.58
2022-09-12T07:30:53.943Z,52.22
2022-09-12T07:33:22.155Z,52.22
2022-09-12T07:35:49.582Z,50.25
2022-09-12T07:38:16.955Z,52.05
2022-09-12T07:40:43.901Z,48.50
2022-09-12T07:43:10.583Z,51.65
2022-09-12T07:45:37.418Z,49.25
2022-09-12T07:48:04.418Z,48.58
2022-09-12T07:50:31.088Z,52.90
2022-09-12T07:52:57.708Z,52.13
2022-09-12T07:57:52.032Z,48.83
2022-09-12T08:00:19.342Z,48.88
2022-09-12T08:02:50.400Z,48.90
2022-09-12T08:05:17.067Z,44.53
2022-09-12T08:07:43.695Z,45.13
2022-09-12T08:10:10.337Z,46.58
2022-09-12T08:12:36.976Z,50.20
2022-09-12T08:15:03.794Z,45.90
2022-09-12T08:17:30.472Z,45.38
2022-09-12T08:19:57.062Z,51.00
2022-09-12T08:22:24.039Z,48.03
2022-09-12T08:24:50.944Z,47.33
2022-09-12T08:27:17.533Z,44.60
2022-09-12T08:29:44.199Z,41.45
2022-09-12T08:32:11.257Z,43.20
2022-09-12T08:34:37.855Z,43.53
2022-09-12T08:37:04.583Z,39.30
2022-09-12T08:39:32.586Z,43.67
2022-09-12T08:42:06.576Z,39.50
2022-09-12T08:44:54.234Z,42.50
2022-09-12T08:47:25.332Z,37.75
2022-09-12T08:49:58.114Z,36.95
2022-09-12T08:55:27.561Z,32.05
2022-09-12T08:57:54.689Z,32.80
2022-09-12T09:00:21.667Z,30.88
2022-09-12T09:03:10.021Z,31.10
2022-09-12T09:05:48.914Z,33.42
2022-09-12T09:08:31.142Z,32.25
2022-09-12T09:11:25.832Z,31.58
2022-09-12T09:14:16.968Z,31.13
2022-09-12T09:16:46.421Z,31.55
2022-09-12T09:19:23.283Z,31.15
2022-09-12T09:22:03.149Z,27.40
2022-09-12T09:24:47.714Z,26.52
2022-09-12T09:27:40.805Z,26.45
2022-09-12T09:30:19.794Z,25.05
2022-09-12T09:32:51.454Z,24.15
2022-09-12T09:35:32.155Z,24.65
2022-09-12T09:38:12.424Z,26.88
2022-09-12T09:40:46.210Z,23.60
2022-09-12T09:43:24.501Z,26.75
2022-09-12T09:45:53.176Z,22.77
2022-09-12T09:48:25.750Z,25.00
2022-09-12T09:50:52.828Z,22.00
2022-09-12T09:53:34.047Z,21.77
2022-09-12T09:56:07.227Z,20.27
2022-09-12T09:58:35.553Z,18.75
2022-09-12T10:01:05.742Z,18.77
2022-09-12T10:03:40.469Z,19.23
2022-09-12T10:06:22.168Z,18.42
2022-09-12T10:08:50.417Z,20.02
2022-09-12T10:11:22.721Z,18.48
2022-09-12T10:13:57.754Z,18.20
2022-09-12T10:16:28.071Z,18.55
2022-09-12T10:19:00.235Z,18.65
2022-09-12T10:21:33.553Z,19.52
2022-09-12T10:24:16.219Z,17.45
2022-09-12T10:26:46.797Z,16.77
2022-09-12T10:29:22.823Z,18.23
2022-09-12T10:31:54.158Z,15.05
2022-09-12T10:34:35.849Z,15.85
2022-09-12T10:37:07.234Z,17.70
2022-09-12T10:39:37.650Z,16.48
2022-09-12T10:42:08.055Z,16.83
2022-09-12T10:44:35.368Z,15.38
2022-09-12T10:47:21.590Z,17.45
2022-09-12T10:49:50.450Z,17.02
2022-09-12T10:52:27.269Z,17.02
2022-09-12T10:54:54.258Z,16.95
2022-09-12T10:57:59.983Z,13.07
2022-09-12T11:00:28.036Z,12.95
2022-09-12T11:03:16.396Z,14.02
2022-09-12T11:05:42.947Z,11.70
2022-09-12T11:08:15.687Z,13.82
2022-09-12T11:10:54.650Z,13.27
2022-09-12T11:13:40.584Z,12.77
2022-09-12T11:16:17.101Z,12.95
2022-09-12T11:19:04.736Z,12.27
2022-09-12T11:21:46.499Z,10.43
2022-09-12T11:24:24.542Z,11.40
2022-09-12T11:27:10.560Z,10.63
2022-09-12T11:30:02.898Z,10.20
2022-09-12T11:32:48.072Z,10.02
2022-09-12T11:38:00.423Z,10.02
2022-09-12T11:40:40.575Z,10.13
2022-09-12T11:43:25.060Z,10.60
2022-09-12T11:45:52.410Z,11.98
2022-09-12T11:48:37.240Z,11.00
2022-09-12T11:51:15.432Z,9.13
2022-09-12T11:53:43.854Z,8.35
2022-09-12T11:56:17.081Z,8.57
2022-09-12T11:58:51.568Z,10.23
2022-09-12T12:01:45.077Z,8.70
2022-09-12T12:04:19.302Z,9.30
2022-09-12T12:06:56.359Z,7.82
2022-09-12T12:09:23.480Z,7.72
2022-09-12T12:11:56.921Z,7.35
2022-09-12T12:14:44.537Z,8.05
2022-09-12T12:17:30.291Z,7.38
2022-09-12T12:20:08.213Z,7.20
2022-09-12T12:22:35.962Z,8.10
2022-09-12T12:25:29.029Z,7.78
2022-09-12T12:27:59.219Z,6.97
2022-09-12T12:30:33.335Z,7.07
2022-09-12T12:33:26.872Z,7.43
2022-09-12T12:35:59.707Z,8.02
2022-09-12T12:38:37.161Z,8.75
2022-09-12T12:41:19.037Z,6.95
2022-09-12T12:43:48.206Z,7.55
2022-09-12T12:46:16.836Z,7.28
2022-09-12T12:49:20.042Z,7.93
2022-09-12T12:52:01.935Z,6.28
2022-09-12T12:54:34.172Z,8.60
2022-09-12T12:57:12.950Z,6.65
2022-09-12T13:02:37.066Z,7.40
2022-09-12T13:05:15.883Z,8.18
2022-09-12T13:10:23.395Z,7.13
2022-09-12T13:12:51.431Z,7.13
2022-09-12T13:15:36.189Z,6.90
2022-09-12T13:18:11.162Z,6.57
2022-09-12T13:20:49.702Z,7.28
2022-09-12T13:23:27.820Z,7.18
2022-09-12T13:26:00.528Z,7.80
2022-09-12T13:28:29.260Z,8.27
2022-09-12T13:31:01.093Z,7.18
2022-09-12T13:33:34.160Z,7.30
2022-09-12T13:36:09.714Z,8.10
2022-09-12T13:39:02.111Z,9.07
2022-09-12T13:41:50.980Z,7.28
2022-09-12T13:44:21.537Z,6.85
2022-09-12T13:46:48.838Z,7.93
2022-09-12T13:49:32.808Z,8.00
2022-09-12T13:52:03.747Z,7.22
2022-09-12T13:54:31.595Z,7.15
2022-09-12T13:56:59.698Z,7.75
2022-09-12T13:59:26.355Z,6.07
2022-09-12T14:01:53.054Z,6.80
2022-09-12T14:04:44.211Z,8.90
2022-09-12T14:07:15.169Z,7.70
2022-09-12T14:09:44.895Z,6.63
2022-09-12T14:12:32.307Z,7.35
2022-09-12T14:14:59.003Z,7.13
2022-09-12T14:17:32.712Z,7.50
2022-09-12T14:20:03.693Z,7.05
2022-09-12T14:22:30.990Z,6.47
2022-09-12T14:24:59.499Z,7.97
2022-09-12T14:27:30.100Z,7.65
2022-09-12T14:30:09.045Z,7.72
2022-09-12T14:32:36.023Z,7.50
2022-09-12T14:35:11.706Z,6.90
2022-09-12T14:37:50.144Z,5.68
2022-09-12T14:40:20.220Z,5.90
2022-09-12T14:42:51.504Z,7.45
2022-09-12T14:45:28.998Z,7.85
2022-09-12T14:47:56.666Z,6.38
2022-09-12T14:50:26.385Z,7.53
2022-09-12T14:53:24.301Z,6.43
2022-09-12T14:56:05.503Z,8.52
2022-09-12T14:58:32.217Z,8.32
2022-09-12T15:01:22.801Z,7.50
2022-09-12T15:03:56.552Z,10.55
2022-09-12T15:06:32.148Z,7.05
2022-09-12T15:09:02.948Z,7.25
2022-09-12T15:11:29.553Z,7.70
2022-09-12T15:13:56.184Z,7.18
2022-09-12T15:16:22.961Z,8.13
2022-09-12T15:18:49.868Z,6.72
2022-09-12T15:21:19.106Z,5.57
2022-09-12T15:23:50.315Z,6.40
2022-09-12T15:26:22.429Z,7.18
2022-09-12T15:28:49.925Z,7.60
2022-09-12T15:31:27.772Z,7.15
2022-09-12T15:33:55.822Z,6.70
2022-09-12T15:36:24.075Z,7.80
2022-09-12T15:38:52.240Z,8.07
2022-09-12T15:41:38.043Z,6.55
2022-09-12T15:44:06.684Z,7.22
2022-09-12T15:46:33.778Z,7.40
2022-09-12T15:49:00.448Z,6.47
2022-09-12T15:51:27.633Z,6.00
2022-09-12T15:53:54.318Z,7.30
2022-09-12T15:56:22.045Z,5.20
2022-09-12T15:58:58.837Z,5.53
2022-09-12T16:01:27.923Z,5.68
2022-09-12T16:03:54.711Z,7.30
2022-09-12T16:06:22.225Z,9.43
2022-09-12T16:08:49.295Z,7.07
2022-09-12T16:11:26.520Z,6.10
2022-09-12T16:13:54.020Z,8.45
2022-09-12T16:16:20.941Z,7.70
2022-09-12T16:18:47.867Z,7.53
2022-09-12T16:21:15.727Z,5.95
2022-09-12T16:23:47.029Z,8.75
2022-09-12T16:26:13.963Z,6.30
2022-09-12T16:28:41.067Z,6.60
2022-09-12T16:31:10.677Z,6.38
2022-09-12T16:33:38.363Z,7.30
2022-09-12T16:36:13.714Z,6.25
2022-09-12T16:38:41.894Z,5.45
2022-09-12T16:41:08.573Z,5.65
2022-09-12T16:43:36.847Z,5.05
2022-09-12T16:46:05.245Z,5.72
2022-09-12T16:48:32.491Z,5.88
2022-09-12T16:51:01.397Z,6.00
2022-09-12T16:53:33.996Z,5.95
2022-09-12T16:56:01.156Z,6.10
2022-09-12T16:58:28.073Z,6.38
2022-09-12T17:01:03.399Z,6.22
2022-09-12T17:03:30.569Z,5.43
2022-09-12T17:05:59.524Z,6.20
2022-09-12T17:08:26.317Z,5.70
2022-09-12T17:10:53.019Z,6.97
2022-09-12T17:13:19.603Z,5.55
2022-09-12T17:15:46.259Z,7.32
2022-09-12T17:18:12.907Z,5.15
2022-09-12T17:20:39.525Z,6.40
2022-09-12T17:23:09.647Z,7.47
2022-09-12T17:25:36.630Z,8.52
2022-09-12T17:28:05.527Z,7.25
2022-09-12T17:30:36.359Z,6.20
2022-09-12T17:33:03.184Z,6.55
2022-09-12T17:35:29.793Z,6.57
2022-09-12T17:37:56.384Z,5.70
2022-09-12T17:40:37.077Z,7.00
2022-09-12T17:43:11.525Z,5.85
2022-09-12T17:45:38.507Z,5.55
2022-09-12T17:48:06.652Z,7.45
2022-09-12T17:50:39.535Z,8.15
2022-09-12T17:53:07.155Z,6.63
2022-09-12T17:55:37.434Z,7.75
2022-09-12T17:58:04.217Z,5.97
2022-09-12T18:00:57.630Z,6.80
2022-09-12T18:03:24.788Z,7.72
2022-09-12T18:05:56.216Z,7.38
2022-09-12T18:08:24.153Z,7.07
2022-09-12T18:10:51.927Z,7.40
2022-09-12T18:13:18.587Z,7.43
2022-09-12T18:15:45.265Z,7.35
2022-09-12T18:18:11.996Z,8.02
2022-09-12T18:20:38.635Z,7.65
2022-09-12T18:23:05.247Z,6.68
2022-09-12T18:25:31.857Z,7.03
2022-09-12T18:27:58.551Z,7.30
2022-09-12T18:30:25.319Z,6.95
2022-09-12T18:32:51.985Z,7.25
2022-09-12T18:35:18.613Z,8.48
2022-09-12T18:37:45.270Z,7.45
2022-09-12T18:40:12.060Z,7.43
2022-09-12T18:42:38.799Z,9.68
2022-09-12T18:45:05.949Z,9.18
2022-09-12T18:47:32.633Z,8.63
2022-09-12T18:49:59.359Z,8.30
2022-09-12T18:52:25.981Z,7.95
2022-09-12T18:54:52.590Z,6.93
2022-09-12T18:57:19.207Z,7.65
2022-09-12T18:59:45.845Z,8.15
2022-09-12T19:02:16.122Z,8.73
2022-09-12T19:04:43.663Z,8.43
2022-09-12T19:07:10.633Z,8.10
2022-09-12T19:09:37.320Z,8.80
2022-09-12T19:12:04.138Z,8.48
2022-09-12T19:14:30.808Z,8.65
2022-09-12T19:16:57.482Z,7.13
2022-09-12T19:19:24.141Z,10.20
2022-09-12T19:21:50.836Z,8.18
2022-09-12T19:24:17.485Z,11.25
2022-09-12T19:26:44.985Z,8.85
2022-09-12T19:29:13.742Z,7.72
2022-09-12T19:31:40.512Z,9.02
2022-09-12T19:34:07.736Z,10.02
2022-09-12T19:36:50.141Z,9.75
2022-09-12T19:39:19.368Z,8.98
2022-09-12T19:41:46.528Z,9.60
2022-09-12T19:44:13.818Z,9.95
2022-09-12T19:46:40.652Z,8.35
2022-09-12T19:49:07.345Z,8.85
2022-09-12T19:51:33.991Z,8.95
2022-09-12T19:54:00.801Z,9.13
2022-09-12T19:56:27.432Z,9.00
2022-09-12T19:58:56.561Z,10.05
2022-09-12T20:01:27.914Z,7.80
2022-09-12T20:03:55.724Z,8.27
2022-09-12T20:06:22.522Z,9.95
2022-09-12T20:08:49.791Z,8.48
2022-09-12T20:11:18.964Z,8.73
2022-09-12T20:13:46.305Z,8.30
2022-09-12T20:16:22.101Z,8.75
2022-09-12T20:19:13.208Z,8.88
2022-09-12T20:21:42.005Z,10.20
2022-09-12T20:24:15.683Z,9.73
2022-09-12T20:26:42.668Z,7.82
2022-09-12T20:29:11.037Z,9.10
2022-09-12T20:31:39.298Z,10.48
2022-09-12T20:34:07.182Z,9.32
2022-09-12T20:36:34.303Z,9.07
2022-09-12T20:39:02.417Z,9.80
2022-09-12T20:41:31.779Z,8.80
2022-09-12T20:43:58.909Z,9.77
2022-09-12T20:46:27.656Z,9.57
2022-09-12T20:48:55.101Z,8.50
2022-09-12T20:51:22.536Z,8.55
2022-09-12T20:53:53.973Z,9.07
2022-09-12T20:56:21.394Z,10.00
2022-09-12T20:58:48.027Z,9.55
2022-09-12T21:01:16.535Z,10.45
2022-09-12T21:03:44.137Z,9.75
2022-09-12T21:06:16.822Z,7.80
2022-09-12T21:11:10.903Z,11.25
2022-09-12T21:13:38.177Z,8.63
2022-09-12T21:16:17.737Z,8.32
2022-09-12T21:18:46.018Z,10.25
2022-09-12T21:21:14.282Z,8.57
2022-09-12T21:23:41.409Z,9.23
2022-09-12T21:26:08.518Z,7.90
2022-09-12T21:28:35.187Z,10.23
2022-09-12T21:31:01.901Z,8.95
2022-09-12T21:33:28.552Z,10.05
2022-09-12T21:35:55.209Z,9.73
2022-09-12T21:38:21.896Z,8.93
2022-09-12T21:40:48.523Z,8.15
2022-09-12T21:43:15.626Z,7.82
2022-09-12T21:45:42.260Z,9.52
2022-09-12T21:48:11.771Z,8.02
2022-09-12T21:50:42.369Z,9.38
2022-09-12T21:53:16.332Z,8.57
2022-09-12T21:55:46.763Z,9.05
2022-09-12T21:58:13.471Z,8.23
2022-09-12T22:00:43.823Z,8.55
2022-09-12T22:03:11.661Z,10.05
2022-09-12T22:05:40.170Z,7.80
2022-09-12T22:08:07.964Z,8.18
2022-09-12T22:10:35.276Z,9.93
2022-09-12T22:13:02.846Z,9.05
2022-09-12T22:15:40.582Z,9.15
2022-09-12T22:18:08.989Z,7.75
2022-09-12T22:20:37.535Z,8.40
2022-09-12T22:23:24.963Z,10.35
2022-09-12T22:25:55.528Z,7.82
2022-09-12T22:28:22.557Z,7.60
2022-09-12T22:30:49.173Z,7.53
2022-09-12T22:33:15.840Z,9.02
2022-09-12T22:35:42.522Z,8.95
2022-09-12T22:38:09.182Z,9.43
2022-09-12T22:40:35.867Z,10.60
2022-09-12T22:43:02.484Z,9.10
2022-09-12T22:45:29.148Z,8.00
2022-09-12T22:48:00.427Z,9.10
2022-09-12T22:50:39.703Z,9.07
2022-09-12T22:53:06.458Z,9.35
2022-09-12T22:55:33.117Z,7.90
2022-09-12T22:57:59.810Z,9.07
2022-09-12T23:00:27.922Z,9.25
2022-09-12T23:02:54.682Z,11.25
2022-09-12T23:05:21.435Z,9.38
2022-09-12T23:07:48.579Z,10.05
2022-09-12T23:10:16.148Z,9.93
2022-09-12T23:12:42.762Z,11.05
2022-09-12T23:15:10.115Z,9.43
2022-09-12T23:17:37.056Z,9.65
2022-09-12T23:20:06.837Z,9.85
2022-09-12T23:22:36.833Z,9.70
2022-09-12T23:25:04.023Z,12.75
2022-09-12T23:27:30.625Z,9.52
2022-09-12T23:29:57.241Z,9.73
2022-09-12T23:32:24.911Z,9.77
2022-09-12T23:34:51.928Z,9.10
2022-09-12T23:37:18.551Z,10.27
2022-09-12T23:39:45.313Z,9.70
2022-09-12T23:42:12.078Z,9.90
2022-09-12T23:44:38.661Z,12.80
2022-09-12T23:47:05.294Z,10.20
2022-09-12T23:49:31.935Z,11.15
2022-09-12T23:51:58.553Z,10.50
2022-09-12T23:54:25.354Z,11.32
2022-09-12T23:56:52.282Z,11.88
2022-09-12T23:59:18.961Z,12.00
